Share

Curtis, NE (69025)

McCook Municipal (KMCK) Elev 2579 ft | 40.20 °N, 100.59 °W | Change Station

Current weather conditions updated 36 minutes ago

Clear
Clear
45 °F
Feels Like 40 °F
N
10
Wind Variable Wind from NNE
Sunrise 7:01 AM
Sunset 8:22 PM
Moon Waning Gibbous

Tomorrow is forecast to be nearly the same temperature as today.

Pressure 30.07 in
Visibility 10.0 miles
Clouds Clear
Windchill 40 °F
Dew Point 34 °F
Humidity 65%
Rainfall 0.00 in
Snow Depth Not available.
UV 0 out of 16
Pollen 10.90 out of 12
Air Quality Not available.
Flu Activity Sporadic
METAR KMCK 170153Z AUTO 02009KT 10SM CLR 07/01 A3006 RMK AO2 SLP182 T00720011

More Conditions Fewer Conditions

Pressure 30.07 in
Visibility 10.0 miles
Clouds Clear
Windchill 40 °F
Dew Point 34 °F
Humidity 65%
Rainfall 0.00 in
Snow Depth Not available.
UV 0 out of 16
Pollen 10.90 out of 12
Air Quality Not available.
Flu Activity Sporadic
METAR KMCK 170153Z AUTO 02009KT 10SM CLR 07/01 A3006 RMK AO2 SLP182 T00720011

More Conditions Fewer Conditions

10-Day Forecast

Almanac

Astronomy

Apr. 16, 2014 Rise Set
Actual Time 7:01 AM CDT 8:22 PM CDT
Civil Twilight 6:33 AM CDT 8:50 PM CDT
Nautical Twilight 5:59 AM CDT 9:25 PM CDT
Astronomical Twilight 5:23 AM CDT 10:01 PM CDT
Moon 10:08 PM CDT (4/16) 7:50 AM CDT (4/16)
Length of Visible Light 14h 17m
Length of Day
13h 20m
Tomorrow will be 2m 33s longer.
Waning Gibbous, 96% of the Moon is Illuminated
Today
Waning Gibbous
Apr 22
Last Quarter
Apr 29
New
May 6
First Quarter
May 14
Full

Today's Extremes

State Highs State Lows

Community

  • symphony in blue....
    symphony in blue....
  • Dawn Surprise
    Dawn Surprise
  • Yucca delight
    Yucca delight
  • Sunset inside of the Ocean
    Sunset inside of the Ocean
  • Lunar eclipse 15 April 2014
    Lunar eclipse 15 April 2014

WunderPhotos

Upload Photos

1,701,810 photos uploaded!

WunderBlogs® & News

Nearby

Snow Depth

Station Depth Elevation
No new snow has been reported.

Coastal Water Temperatures

Place Temperature
No Stations Reporting

Earthquake Activity

City Distance Mag. Time & Date
No recent earthquake activity has been reported nearby.
Minimum magnitude displayed is 2.5.

Nearby Weather Stations

There are no personal weather stations in this area.

What do you think?

We're not finished. Please let us know what you like, what you don't like, and what you are still missing.